Main page
METAR-TAF:

METAR-TAF

Airports :

El Borma Airport

El Borma, Tunisia

latitude: 31-41N, longitude: 009-10E, elevation: 258 m

Current weather observation

The report was made 5 hours and 9 minutes ago, at 14:00 UTC
Wind 8 kt from the West/Northwest, varying between West/Southwest and Northwest
Temperature 14°C
Humidity 33%
Pressure 1018 hPa
Visibility 10 km or more
no clouds below 1500 m and no cumulonimbus

METAR: DTTR 291400Z 29008KT 250V320 CAVOK 14/M02 Q1018

Time: 20:09 (19:09 UTC)

Forecast

The report was made 1 hour and 9 minutes ago, at 18:00 UTC
Forecast valid from 29 at 19 UTC to 30 at 04 UTC
Wind 6 kt from the West
Visibility 10 km or more
no clouds below 1500 m and no cumulonimbus

TAF: DTTR 291800Z 2919/3004 28006KT CAVOK

Weather observations and forecasts of more than 4000 airports (METAR and TAF reports).

The available stations are represented by yellow and red dots on the map.

Hover mouse over dot to see the name of the station.

Then click to see weather observations and forecasts.

To change the map : click on the green buttons with a black cross to zoom in, on the green button with a dash to zoom out, or on the green arrows for adjacent maps.


METAR-TAF: